Time;durP1;ratioP1;P1;durP2;ratioP2;P2;SDS_P1;SDS_P2;PMS_P1;PMS_P2;Temp;Humidity;BMP_temperature;BMP_pressure;BME280_temperature;BME280_humidity;BME280_pressure;Samples;Min_cycle;Max_cycle;Signal;HPM_P1;HPM_P2
2022/07/05 00:01:47;;;;;;;14.27;8.77;;;20.30;99.90;;;;;;5094840;28;20180;-58
2022/07/05 00:04:13;;;;;;;14.10;8.50;;;20.50;99.90;;;;;;5112488;28;20211;-59
2022/07/05 00:07:17;;;;;;;16.17;8.70;;;20.60;99.90;;;;;;5112736;28;20172;-58
2022/07/05 00:09:24;;;;;;;14.18;9.02;;;20.70;99.90;;;;;;5097168;28;20219;-59
2022/07/05 00:11:50;;;;;;;14.10;9.05;;;20.80;99.90;;;;;;5112601;28;20216;-58
2022/07/05 00:14:16;;;;;;;13.73;9.13;;;20.80;99.90;;;;;;5112344;28;20176;-58
2022/07/05 00:16:42;;;;;;;14.52;9.20;;;20.90;99.90;;;;;;5112506;28;20172;-58
2022/07/05 00:19:08;;;;;;;13.30;9.70;;;20.90;99.90;;;;;;5112378;28;20278;-58
2022/07/05 00:21:33;;;;;;;15.13;8.82;;;20.90;99.90;;;;;;5112514;28;20622;-59
2022/07/05 00:23:59;;;;;;;11.68;8.48;;;20.90;99.90;;;;;;5112336;28;20184;-58
2022/07/05 00:26:25;;;;;;;14.77;8.65;;;20.90;99.90;;;;;;5094474;28;20309;-57
2022/07/05 00:28:50;;;;;;;15.43;8.13;;;21.00;99.90;;;;;;5112137;28;20593;-58
2022/07/05 00:31:16;;;;;;;13.50;8.60;;;21.00;99.90;;;;;;5094193;28;20203;-58
2022/07/05 00:33:42;;;;;;;12.55;8.20;;;21.00;99.90;;;;;;5112294;28;20176;-58
2022/07/05 00:36:07;;;;;;;13.38;7.55;;;21.00;99.90;;;;;;5111906;28;20188;-58
2022/07/05 00:38:33;;;;;;;12.13;7.88;;;21.10;99.90;;;;;;5112254;28;20212;-58
2022/07/05 00:40:59;;;;;;;13.50;8.15;;;21.20;99.90;;;;;;5111944;28;20184;-58
2022/07/05 00:43:24;;;;;;;12.93;8.90;;;21.20;99.90;;;;;;5112398;28;20187;-58
2022/07/05 00:45:50;;;;;;;13.98;9.00;;;21.30;99.90;;;;;;5112250;28;20535;-58
2022/07/05 00:48:16;;;;;;;14.40;8.63;;;21.30;99.90;;;;;;5093878;28;20179;-58
2022/07/05 00:50:42;;;;;;;14.13;8.80;;;21.30;99.90;;;;;;5112010;28;20255;-59
2022/07/05 00:53:08;;;;;;;13.63;7.50;;;21.30;99.90;;;;;;5112172;28;20176;-59
2022/07/05 00:55:34;;;;;;;15.68;8.88;;;21.30;99.90;;;;;;5112372;28;20538;-59
2022/07/05 00:58:00;;;;;;;10.35;7.82;;;21.40;99.90;;;;;;5111964;28;20241;-61
2022/07/05 01:00:26;;;;;;;12.68;8.57;;;21.40;99.90;;;;;;5112177;28;20207;-58
2022/07/05 01:02:52;;;;;;;12.88;7.97;;;21.40;99.90;;;;;;5112198;28;20621;-58
2022/07/05 01:05:18;;;;;;;18.17;8.93;;;21.40;99.90;;;;;;5111741;28;20195;-59
2022/07/05 01:07:44;;;;;;;14.23;9.23;;;21.50;99.90;;;;;;5114169;28;20176;-58
2022/07/05 01:10:10;;;;;;;16.05;8.48;;;21.50;99.90;;;;;;5115967;28;20188;-58
2022/07/05 01:12:39;;;;;;;15.43;9.77;;;21.60;99.90;;;;;;5116318;28;20184;-58
2022/07/05 01:15:05;;;;;;;13.38;8.88;;;21.60;99.90;;;;;;5097776;28;20553;-58
2022/07/05 01:17:32;;;;;;;17.95;9.85;;;21.70;99.90;;;;;;5097845;28;20207;-58
2022/07/05 01:19:58;;;;;;;17.80;9.85;;;21.70;99.90;;;;;;5115607;28;20702;-59
2022/07/05 01:22:26;;;;;;;16.42;9.95;;;21.70;99.90;;;;;;5116096;28;20180;-58
2022/07/05 01:24:52;;;;;;;14.77;9.90;;;21.70;99.90;;;;;;5115925;28;20637;-58
2022/07/05 01:27:20;;;;;;;14.90;9.27;;;21.70;99.90;;;;;;5115155;28;20214;-58
2022/07/05 01:29:46;;;;;;;13.85;8.95;;;21.70;99.90;;;;;;5115896;28;20275;-58
2022/07/05 01:32:12;;;;;;;14.38;9.77;;;21.70;99.90;;;;;;5115407;28;20272;-58
2022/07/05 01:34:40;;;;;;;13.15;9.02;;;21.70;99.90;;;;;;5116055;28;20259;-58
2022/07/05 01:37:06;;;;;;;14.45;9.60;;;21.60;99.90;;;;;;5115539;28;20183;-58
2022/07/05 01:39:33;;;;;;;14.35;8.07;;;21.50;99.90;;;;;;5097548;28;20208;-58
2022/07/05 01:41:59;;;;;;;23.75;8.93;;;21.50;99.90;;;;;;5114967;28;20192;-59
2022/07/05 01:44:25;;;;;;;15.40;8.73;;;21.40;99.90;;;;;;5115489;28;20179;-58
2022/07/05 01:46:55;;;;;;;16.00;9.55;;;21.30;99.90;;;;;;5097060;28;20176;-58
2022/07/05 01:49:23;;;;;;;17.80;9.60;;;21.30;99.90;;;;;;5115447;28;20222;-58
2022/07/05 01:51:54;;;;;;;15.93;8.98;;;21.20;99.90;;;;;;5115778;28;20207;-59
2022/07/05 01:54:20;;;;;;;14.90;9.40;;;21.10;99.90;;;;;;5115516;28;20164;-58
2022/07/05 01:56:46;;;;;;;17.17;10.63;;;21.10;99.90;;;;;;5115394;28;20534;-58
2022/07/05 01:59:12;;;;;;;16.52;10.38;;;21.00;99.90;;;;;;5115141;28;20211;-58
2022/07/05 02:01:39;;;;;;;16.45;10.88;;;21.00;99.90;;;;;;5115317;28;20184;-59
2022/07/05 02:04:07;;;;;;;21.23;9.70;;;21.00;99.90;;;;;;5115009;28;20181;-59
2022/07/05 02:06:33;;;;;;;15.75;10.20;;;21.00;99.90;;;;;;5115047;28;20192;-58
2022/07/05 02:09:00;;;;;;;14.52;9.63;;;21.10;99.90;;;;;;5114966;28;20228;-59
2022/07/05 02:11:26;;;;;;;17.55;10.75;;;21.10;99.90;;;;;;5102853;28;20193;-57
2022/07/05 02:13:51;;;;;;;28.08;11.25;;;21.10;99.90;;;;;;5110468;28;20196;-57
2022/07/05 02:16:17;;;;;;;23.02;10.70;;;21.10;99.90;;;;;;5101685;28;20555;-58
2022/07/05 02:18:43;;;;;;;22.52;11.20;;;21.10;99.90;;;;;;5093464;28;20244;-57
2022/07/05 02:21:09;;;;;;;23.00;10.65;;;21.10;99.90;;;;;;5094053;28;20621;-57
2022/07/05 02:23:34;;;;;;;20.98;10.35;;;21.20;99.90;;;;;;5094486;28;20185;-57
2022/07/05 02:26:00;;;;;;;19.60;11.13;;;21.10;99.90;;;;;;5075924;28;20196;-58
2022/07/05 02:28:26;;;;;;;21.08;11.63;;;21.20;99.90;;;;;;5094339;28;20232;-58
2022/07/05 02:30:51;;;;;;;22.35;11.65;;;21.20;99.90;;;;;;5076130;28;20193;-58
2022/07/05 02:33:17;;;;;;;21.88;11.70;;;21.20;99.90;;;;;;5094105;28;20177;-58
2022/07/05 02:35:43;;;;;;;17.08;12.15;;;21.20;99.90;;;;;;5107105;28;20231;-59
2022/07/05 02:38:08;;;;;;;18.58;11.30;;;21.20;99.90;;;;;;5114339;28;20262;-60
2022/07/05 02:40:34;;;;;;;21.05;11.38;;;21.20;99.90;;;;;;5114369;28;20176;-58
2022/07/05 02:43:00;;;;;;;18.45;11.38;;;21.20;99.90;;;;;;5114137;28;20625;-59
2022/07/05 02:45:26;;;;;;;18.05;10.77;;;21.20;99.90;;;;;;5114593;28;20181;-58
2022/07/05 02:47:51;;;;;;;31.27;11.63;;;21.20;99.90;;;;;;5096034;28;20686;-58
2022/07/05 02:50:17;;;;;;;22.15;10.40;;;21.20;99.90;;;;;;5114050;28;20189;-58
2022/07/05 02:52:43;;;;;;;19.42;10.90;;;21.30;99.90;;;;;;5114206;28;20180;-58
2022/07/05 02:55:09;;;;;;;26.13;12.20;;;21.30;99.90;;;;;;5114005;28;20222;-59
2022/07/05 02:57:37;;;;;;;21.25;10.57;;;21.30;99.90;;;;;;5113576;28;20199;-59
2022/07/05 03:00:04;;;;;;;18.50;10.80;;;21.40;99.90;;;;;;5113575;28;20303;-59
2022/07/05 03:02:30;;;;;;;22.08;11.73;;;21.40;99.90;;;;;;5113995;28;20183;-59
2022/07/05 03:04:56;;;;;;;25.10;11.05;;;21.50;99.90;;;;;;5114045;28;20213;-59
2022/07/05 03:07:22;;;;;;;17.90;11.50;;;21.50;99.90;;;;;;5113469;28;20255;-59
2022/07/05 03:09:47;;;;;;;19.13;12.18;;;21.50;99.90;;;;;;5113686;28;20554;-59
2022/07/05 03:12:13;;;;;;;19.17;11.88;;;21.60;99.90;;;;;;5113373;28;20314;-58
2022/07/05 03:14:39;;;;;;;17.02;10.40;;;21.60;99.90;;;;;;5113927;28;20717;-59
2022/07/05 03:17:05;;;;;;;22.00;12.35;;;21.60;99.90;;;;;;5113424;28;20192;-59
2022/07/05 03:19:30;;;;;;;15.60;11.30;;;21.60;99.90;;;;;;5113470;28;20216;-59
2022/07/05 03:21:56;;;;;;;22.05;10.68;;;21.70;99.90;;;;;;5113278;28;20165;-58
2022/07/05 03:24:22;;;;;;;17.75;10.60;;;21.70;99.90;;;;;;5112909;28;20626;-59
2022/07/05 03:26:47;;;;;;;14.43;10.13;;;21.80;99.90;;;;;;5113213;28;20180;-59
2022/07/05 03:29:13;;;;;;;30.73;12.25;;;21.80;99.90;;;;;;5112760;28;20331;-59
2022/07/05 03:31:39;;;;;;;23.15;10.85;;;21.90;99.90;;;;;;5112743;28;20181;-58
2022/07/05 03:34:04;;;;;;;20.17;10.68;;;22.00;99.90;;;;;;5113022;28;20211;-59
2022/07/05 03:36:30;;;;;;;28.52;12.38;;;22.00;99.90;;;;;;5112602;28;20195;-59
2022/07/05 03:38:56;;;;;;;21.80;12.10;;;22.20;99.90;;;;;;5112173;28;20238;-58
2022/07/05 03:41:22;;;;;;;17.33;10.52;;;22.30;99.90;;;;;;5112615;28;20174;-59
2022/07/05 03:43:47;;;;;;;21.60;10.82;;;22.30;99.90;;;;;;5094566;28;20222;-59
2022/07/05 03:46:13;;;;;;;20.40;10.65;;;22.20;99.90;;;;;;5112636;28;20181;-58
2022/07/05 03:48:39;;;;;;;17.77;10.05;;;22.10;99.90;;;;;;5112260;28;20631;-58
2022/07/05 03:51:04;;;;;;;15.82;10.75;;;22.20;99.90;;;;;;5112109;28;20260;-58
2022/07/05 03:53:30;;;;;;;16.77;9.88;;;22.20;99.90;;;;;;5112071;28;20183;-58
2022/07/05 03:55:56;;;;;;;18.83;11.45;;;22.30;99.90;;;;;;5093633;28;20258;-59
2022/07/05 03:58:22;;;;;;;16.52;11.43;;;22.40;99.90;;;;;;5111169;28;20621;-59
2022/07/05 04:00:47;;;;;;;13.90;10.23;;;22.40;99.90;;;;;;5111989;28;20206;-59
2022/07/05 04:03:13;;;;;;;18.55;11.45;;;22.40;99.90;;;;;;5111651;28;20181;-58
2022/07/05 04:05:39;;;;;;;16.25;11.13;;;22.50;99.90;;;;;;5060254;28;20219;-58
2022/07/05 04:08:05;;;;;;;15.55;10.32;;;22.50;99.90;;;;;;5111634;28;20187;-59
2022/07/05 04:10:30;;;;;;;16.85;10.70;;;22.40;99.90;;;;;;5112082;28;20606;-58
2022/07/05 04:12:56;;;;;;;20.05;11.73;;;22.40;99.90;;;;;;5094053;28;20625;-58
2022/07/05 04:15:22;;;;;;;17.77;11.70;;;22.40;99.90;;;;;;5111459;28;20628;-59
2022/07/05 04:17:53;;;;;;;17.63;10.85;;;22.40;99.90;;;;;;5111859;28;20181;-59
2022/07/05 04:20:21;;;;;;;19.08;11.82;;;22.40;99.90;;;;;;5111408;28;20204;-59
2022/07/05 04:22:48;;;;;;;18.13;11.55;;;22.40;99.90;;;;;;5111494;28;20266;-58
2022/07/05 04:25:16;;;;;;;19.67;11.93;;;22.40;99.90;;;;;;5110989;28;20622;-59
2022/07/05 04:27:50;;;;;;;18.83;11.05;;;22.40;99.90;;;;;;5111140;28;20236;-58
2022/07/05 04:30:18;;;;;;;18.75;11.43;;;22.40;99.90;;;;;;5111091;28;20180;-58
2022/07/05 04:32:44;;;;;;;18.38;11.05;;;22.30;99.90;;;;;;5111161;28;20173;-58
2022/07/05 04:35:10;;;;;;;15.05;11.63;;;22.30;99.90;;;;;;5110858;28;20186;-59
2022/07/05 04:37:36;;;;;;;23.05;11.98;;;22.40;99.90;;;;;;5092995;28;20529;-58
2022/07/05 04:40:06;;;;;;;20.25;11.70;;;22.50;99.90;;;;;;5111046;28;20243;-58
2022/07/05 04:42:32;;;;;;;17.92;10.77;;;22.50;99.90;;;;;;5110310;28;20263;-58
2022/07/05 04:44:58;;;;;;;22.85;11.73;;;22.40;99.90;;;;;;5092311;28;20272;-57
2022/07/05 04:47:25;;;;;;;18.50;10.90;;;22.50;99.90;;;;;;5110774;28;20267;-58
2022/07/05 04:49:51;;;;;;;28.45;13.25;;;22.60;99.90;;;;;;5111097;28;20172;-58
2022/07/05 04:52:17;;;;;;;19.45;12.20;;;22.70;99.90;;;;;;5110632;28;20221;-58
2022/07/05 04:54:43;;;;;;;24.48;12.13;;;22.80;99.90;;;;;;5110864;28;20176;-58
2022/07/05 04:57:09;;;;;;;19.50;11.73;;;22.80;99.90;;;;;;5110664;28;20227;-58
2022/07/05 04:59:34;;;;;;;18.65;11.80;;;22.80;99.90;;;;;;5110645;28;20212;-59
2022/07/05 05:02:00;;;;;;;21.23;12.45;;;22.80;99.90;;;;;;5110780;28;20281;-59
2022/07/05 05:04:26;;;;;;;17.60;11.63;;;22.70;99.90;;;;;;5110469;28;20173;-58
2022/07/05 05:06:51;;;;;;;16.08;11.50;;;22.70;99.90;;;;;;5110630;28;20263;-58
2022/07/05 05:09:17;;;;;;;22.65;13.60;;;22.70;99.90;;;;;;5092688;28;20183;-59
2022/07/05 05:11:43;;;;;;;19.65;12.60;;;22.70;99.90;;;;;;5109838;28;20204;-61
2022/07/05 05:14:09;;;;;;;21.73;12.60;;;22.80;99.90;;;;;;5075449;28;20685;-60
2022/07/05 05:16:34;;;;;;;20.42;12.38;;;23.10;99.90;;;;;;5075033;28;20214;-65
2022/07/05 05:19:00;;;;;;;20.17;12.57;;;23.20;99.90;;;;;;5086393;28;20228;-61
2022/07/05 05:21:26;;;;;;;25.05;12.40;;;23.40;99.90;;;;;;5109040;28;20188;-60
2022/07/05 05:23:52;;;;;;;18.77;13.80;;;23.50;99.90;;;;;;5109395;28;20629;-59
2022/07/05 05:26:17;;;;;;;18.55;12.55;;;23.60;99.90;;;;;;5111035;28;20180;-61
2022/07/05 05:28:43;;;;;;;30.33;13.38;;;23.40;99.90;;;;;;5090855;28;20646;-61
2022/07/05 05:31:09;;;;;;;20.95;12.43;;;23.50;99.90;;;;;;5109508;28;20294;-61
2022/07/05 05:33:35;;;;;;;26.17;12.93;;;23.60;99.90;;;;;;5109957;28;20188;-60
2022/07/05 05:36:01;;;;;;;25.83;13.50;;;23.40;99.90;;;;;;5108989;28;20231;-61
2022/07/05 05:38:27;;;;;;;22.23;13.02;;;23.40;99.90;;;;;;5111159;28;20246;-66
2022/07/05 05:40:52;;;;;;;25.20;13.10;;;23.40;99.90;;;;;;5076492;28;20191;-63
2022/07/05 05:43:18;;;;;;;18.40;11.60;;;23.50;99.90;;;;;;5092856;28;20188;-62
2022/07/05 05:45:44;;;;;;;26.80;13.65;;;23.60;99.90;;;;;;5111176;28;20188;-65
2022/07/05 05:48:10;;;;;;;20.75;12.77;;;23.80;99.90;;;;;;5075617;28;20184;-61
2022/07/05 05:50:40;;;;;;;18.42;11.95;;;23.80;99.90;;;;;;5091467;28;20196;-62
2022/07/05 05:53:07;;;;;;;23.85;13.32;;;24.00;99.90;;;;;;5109474;28;20259;-65
2022/07/05 05:55:33;;;;;;;26.00;12.23;;;24.00;99.90;;;;;;5094089;28;20211;-64
2022/07/05 05:58:17;;;;;;;24.85;12.88;;;24.10;99.90;;;;;;5091443;27;20210;-61
2022/07/05 06:00:44;;;;;;;20.67;13.30;;;24.30;99.90;;;;;;5112382;27;20577;-61
2022/07/05 06:03:10;;;;;;;26.08;13.73;;;24.50;99.90;;;;;;5111137;28;20652;-64
2022/07/05 06:05:36;;;;;;;21.42;13.38;;;24.50;99.90;;;;;;5110923;28;20368;-62
2022/07/05 06:08:01;;;;;;;24.70;13.65;;;24.50;99.90;;;;;;5092997;28;20204;-61
2022/07/05 06:10:32;;;;;;;25.40;14.63;;;24.50;99.90;;;;;;5113614;27;20188;-62
2022/07/05 06:13:00;;;;;;;24.80;13.88;;;24.70;99.90;;;;;;5094333;28;20613;-63
2022/07/05 06:15:26;;;;;;;27.98;13.93;;;24.70;99.90;;;;;;5076229;28;20242;-63
2022/07/05 06:17:52;;;;;;;21.98;14.30;;;24.90;99.90;;;;;;5089304;28;20545;-62
2022/07/05 06:20:23;;;;;;;23.55;14.77;;;24.60;99.90;;;;;;5112576;28;20212;-63
2022/07/05 06:22:50;;;;;;;24.52;15.52;;;24.60;99.90;;;;;;5112189;28;20188;-61
2022/07/05 06:25:17;;;;;;;26.17;15.90;;;24.50;99.90;;;;;;5092373;28;20573;-63
2022/07/05 06:27:45;;;;;;;24.42;14.98;;;24.30;99.90;;;;;;5110775;28;20228;-69
2022/07/05 06:30:13;;;;;;;27.17;15.98;;;24.20;99.90;;;;;;5112089;28;20191;-62
2022/07/05 06:32:39;;;;;;;21.08;15.43;;;24.10;99.90;;;;;;5092599;28;20289;-66
2022/07/05 06:35:05;;;;;;;30.45;16.63;;;24.10;99.90;;;;;;5111697;28;20188;-59
2022/07/05 06:37:53;;;;;;;23.88;16.05;;;24.00;99.90;;;;;;5077690;28;20189;-61
2022/07/05 06:40:27;;;;;;;27.65;15.30;;;24.30;99.90;;;;;;5111763;27;20220;-67
2022/07/05 06:42:55;;;;;;;26.42;15.90;;;24.60;99.90;;;;;;5108322;28;20223;-66
2022/07/05 06:45:21;;;;;;;27.75;16.02;;;24.70;99.90;;;;;;5110470;27;20534;-64
2022/07/05 06:47:58;;;;;;;28.75;15.95;;;24.60;99.90;;;;;;5092509;28;20220;-64
2022/07/05 06:50:28;;;;;;;28.58;14.70;;;24.70;99.90;;;;;;5092718;28;20196;-67
2022/07/05 06:52:54;;;;;;;29.83;16.10;;;24.70;99.90;;;;;;5092957;28;20184;-63
2022/07/05 06:55:21;;;;;;;36.35;15.50;;;24.90;99.90;;;;;;5109913;28;20572;-65
2022/07/05 06:57:46;;;;;;;25.70;17.05;;;24.90;99.90;;;;;;5111787;27;20180;-63
2022/07/05 07:00:13;;;;;;;31.10;17.02;;;25.10;99.90;;;;;;5111617;28;20259;-63
2022/07/05 07:02:39;;;;;;;25.70;16.15;;;25.20;99.90;;;;;;5092772;28;20195;-67
2022/07/05 07:05:06;;;;;;;25.75;16.75;;;25.40;99.90;;;;;;5092276;28;20573;-64
2022/07/05 07:10:16;;;;;;;32.15;16.90;;;25.60;99.90;;;;;;5110592;28;20636;-61
2022/07/05 07:12:42;;;;;;;29.90;15.90;;;25.80;99.90;;;;;;5090754;28;20604;-62
2022/07/05 07:15:08;;;;;;;131.40;58.83;;;26.00;99.90;;;;;;5092276;28;20263;-63
2022/07/05 07:17:34;;;;;;;38.42;18.65;;;26.10;99.90;;;;;;5108745;28;20250;-62
2022/07/05 07:19:59;;;;;;;39.38;18.85;;;26.10;99.90;;;;;;5093113;27;20272;-61
2022/07/05 07:22:25;;;;;;;26.95;17.25;;;26.20;99.90;;;;;;5110862;28;20225;-63
2022/07/05 07:24:51;;;;;;;29.35;17.38;;;26.30;99.90;;;;;;5110998;28;20550;-61
2022/07/05 07:27:17;;;;;;;26.70;16.83;;;26.40;99.90;;;;;;5110368;28;20184;-60
2022/07/05 07:29:45;;;;;;;31.55;17.27;;;26.50;99.90;;;;;;5111050;28;20200;-63
2022/07/05 07:32:12;;;;;;;22.98;15.27;;;26.60;99.90;;;;;;5092182;28;20195;-69
2022/07/05 07:34:38;;;;;;;30.63;16.98;;;26.60;99.90;;;;;;5110777;28;20215;-64
2022/07/05 07:37:05;;;;;;;31.48;14.77;;;26.70;99.90;;;;;;5073746;28;20623;-68
2022/07/05 07:39:31;;;;;;;22.83;15.45;;;26.90;98.30;;;;;;5111063;28;20208;-63
2022/07/05 07:41:57;;;;;;;27.40;13.48;;;26.90;97.90;;;;;;5111072;28;20543;-62
2022/07/05 07:44:23;;;;;;;30.33;16.17;;;27.00;97.40;;;;;;5111373;28;20652;-66
2022/07/05 07:46:50;;;;;;;27.38;16.33;;;27.10;98.60;;;;;;5110289;28;20223;-59
2022/07/05 07:49:17;;;;;;;26.73;16.63;;;27.20;98.80;;;;;;5110015;28;20226;-62
2022/07/05 07:51:43;;;;;;;26.00;15.75;;;27.30;98.80;;;;;;5092638;28;20192;-62
2022/07/05 07:54:09;;;;;;;25.95;14.90;;;27.40;98.40;;;;;;5110583;28;20309;-61
2022/07/05 07:56:35;;;;;;;23.25;12.88;;;27.50;96.40;;;;;;5091823;28;20212;-62
2022/07/05 07:59:01;;;;;;;21.73;12.38;;;27.60;94.50;;;;;;5109645;28;20236;-64
2022/07/05 08:01:27;;;;;;;22.27;13.40;;;27.60;94.60;;;;;;5091860;28;20581;-65
2022/07/05 08:03:52;;;;;;;28.38;15.00;;;27.60;94.70;;;;;;5091864;28;20192;-63
2022/07/05 08:06:18;;;;;;;26.02;14.75;;;27.70;95.50;;;;;;5074814;28;20184;-64
2022/07/05 08:08:45;;;;;;;21.13;13.77;;;27.80;95.30;;;;;;5110312;28;20273;-62
2022/07/05 08:11:12;;;;;;;25.65;14.90;;;27.80;95.20;;;;;;5109310;28;20722;-64
2022/07/05 08:13:42;;;;;;;26.30;15.52;;;27.90;95.60;;;;;;5109646;28;20251;-64
2022/07/05 08:16:09;;;;;;;29.63;16.10;;;27.90;95.80;;;;;;5091416;28;20199;-64
2022/07/05 08:21:31;;;;;;;26.73;14.93;;;28.00;96.20;;;;;;5110472;28;20668;-65
2022/07/05 08:24:16;;;;;;;34.00;16.05;;;28.30;95.80;;;;;;5074608;28;20633;-64
2022/07/05 08:26:41;;;;;;;26.33;16.08;;;28.30;95.60;;;;;;5090596;28;20264;-64
2022/07/05 08:29:09;;;;;;;26.75;15.80;;;28.40;95.70;;;;;;5091607;28;20235;-63
2022/07/05 08:31:38;;;;;;;26.73;15.57;;;28.70;95.70;;;;;;5109381;28;20682;-61
2022/07/05 08:34:04;;;;;;;27.23;15.75;;;28.90;95.00;;;;;;5109826;28;20180;-62
2022/07/05 08:36:30;;;;;;;29.77;15.02;;;29.10;95.00;;;;;;5108880;28;20188;-62
2022/07/05 08:38:56;;;;;;;24.02;14.45;;;29.00;94.80;;;;;;5074365;28;20669;-62
2022/07/05 08:41:22;;;;;;;24.17;15.32;;;29.10;94.60;;;;;;5109625;28;20192;-63
2022/07/05 08:43:49;;;;;;;26.27;15.68;;;29.10;94.50;;;;;;5109652;28;20271;-64
2022/07/05 08:46:16;;;;;;;26.30;15.82;;;29.20;94.70;;;;;;5108363;28;20769;-62
2022/07/05 08:48:46;;;;;;;27.50;16.13;;;29.40;94.60;;;;;;5109263;28;20613;-67
2022/07/05 08:51:26;;;;;;;25.33;15.20;;;29.60;94.40;;;;;;5108993;28;20275;-63
2022/07/05 08:53:53;;;;;;;22.10;15.00;;;29.90;94.10;;;;;;5108958;28;20649;-62
2022/07/05 08:56:19;;;;;;;28.60;15.07;;;29.90;93.30;;;;;;5073575;28;20614;-61
2022/07/05 08:58:46;;;;;;;21.85;14.77;;;29.80;93.10;;;;;;5091811;28;20634;-64
2022/07/05 09:01:13;;;;;;;23.00;15.38;;;29.80;93.10;;;;;;5091289;28;20843;-62
2022/07/05 09:03:43;;;;;;;28.50;14.82;;;30.00;92.80;;;;;;5109655;28;20199;-60
2022/07/05 09:06:15;;;;;;;23.00;13.90;;;30.10;91.80;;;;;;5090077;28;20199;-65
2022/07/05 09:08:42;;;;;;;42.28;14.35;;;30.20;92.30;;;;;;5108968;28;20629;-64
2022/07/05 09:11:13;;;;;;;22.52;13.52;;;30.30;91.90;;;;;;5108294;28;20603;-66
2022/07/05 09:13:44;;;;;;;27.40;13.27;;;30.40;91.10;;;;;;5092258;28;20280;-61
2022/07/05 09:16:11;;;;;;;18.60;13.15;;;30.40;91.00;;;;;;5108814;28;20211;-64
2022/07/05 09:18:40;;;;;;;25.15;14.32;;;30.20;90.90;;;;;;5107292;28;20271;-65
2022/07/05 09:21:13;;;;;;;23.73;12.77;;;30.30;91.00;;;;;;5109166;28;20233;-62
2022/07/05 09:23:39;;;;;;;22.95;13.10;;;30.50;89.90;;;;;;5090474;28;20215;-63
2022/07/05 09:26:05;;;;;;;22.55;12.73;;;30.50;88.40;;;;;;5090670;28;20185;-65
2022/07/05 09:28:32;;;;;;;25.88;12.85;;;30.70;88.80;;;;;;5110289;28;20740;-63
2022/07/05 09:30:58;;;;;;;24.15;12.45;;;31.00;88.80;;;;;;5078014;27;20220;-63
2022/07/05 09:33:23;;;;;;;21.95;11.77;;;31.20;86.90;;;;;;5113930;27;20230;-62
2022/07/05 09:35:56;;;;;;;24.02;13.30;;;31.40;86.30;;;;;;5077261;28;20192;-64
2022/07/05 09:38:26;;;;;;;26.63;12.82;;;31.40;86.30;;;;;;5128657;27;20541;-63
2022/07/05 09:41:00;;;;;;;20.80;11.32;;;31.60;83.80;;;;;;5078708;28;20199;-65
2022/07/05 09:43:29;;;;;;;16.52;10.52;;;31.60;81.10;;;;;;5113479;27;20177;-63
2022/07/05 09:45:57;;;;;;;19.20;10.63;;;31.50;80.60;;;;;;5094957;28;20263;-65
2022/07/05 09:48:23;;;;;;;16.08;10.43;;;31.50;80.00;;;;;;5112887;28;20531;-63
2022/07/05 09:50:51;;;;;;;20.55;11.70;;;31.80;79.60;;;;;;5094760;28;20188;-62
2022/07/05 09:53:18;;;;;;;37.53;15.15;;;31.90;78.80;;;;;;5111958;28;20215;-64
2022/07/05 09:56:01;;;;;;;17.67;10.95;;;32.00;78.70;;;;;;5077222;28;20188;-64
2022/07/05 09:58:27;;;;;;;17.58;11.68;;;32.00;77.20;;;;;;5112503;28;20311;-66
2022/07/05 10:00:53;;;;;;;27.30;12.13;;;32.00;77.70;;;;;;5094051;28;20196;-65
2022/07/05 10:03:18;;;;;;;18.63;10.80;;;32.10;78.10;;;;;;5094802;28;20546;-62
2022/07/05 10:05:44;;;;;;;20.92;11.38;;;31.90;76.80;;;;;;5113418;28;20279;-62
2022/07/05 10:08:12;;;;;;;33.75;12.52;;;31.70;78.50;;;;;;5112457;28;20199;-66
2022/07/05 10:10:41;;;;;;;17.52;10.95;;;31.90;78.20;;;;;;5112054;27;20329;-64
2022/07/05 10:13:06;;;;;;;18.60;10.73;;;32.00;76.70;;;;;;5112600;28;20207;-63
2022/07/05 10:15:34;;;;;;;26.75;11.75;;;32.00;76.50;;;;;;5113009;28;20561;-62
2022/07/05 10:18:08;;;;;;;27.25;12.95;;;32.30;76.80;;;;;;5109184;28;20212;-64
2022/07/05 10:20:37;;;;;;;25.45;11.52;;;32.70;76.40;;;;;;5111997;28;20291;-61
2022/07/05 10:23:10;;;;;;;21.83;11.48;;;32.90;74.90;;;;;;5112444;28;20346;-62
2022/07/05 10:25:37;;;;;;;20.70;12.18;;;33.00;74.90;;;;;;5112158;28;20701;-63
2022/07/05 10:28:05;;;;;;;20.90;11.60;;;32.80;74.10;;;;;;5081419;28;20265;-62
2022/07/05 10:30:31;;;;;;;26.00;11.45;;;32.60;74.00;;;;;;5072220;28;20710;-61
2022/07/05 10:32:57;;;;;;;21.30;12.38;;;32.60;74.00;;;;;;5071734;28;20192;-63
2022/07/05 10:35:24;;;;;;;21.77;12.07;;;32.80;73.70;;;;;;5071753;28;20600;-64
2022/07/05 10:37:50;;;;;;;14.82;10.95;;;33.10;72.20;;;;;;5069901;28;20192;-61
2022/07/05 10:40:18;;;;;;;27.05;10.57;;;33.30;72.10;;;;;;5070744;28;20221;-64
2022/07/05 10:42:55;;;;;;;21.67;10.35;;;33.30;70.50;;;;;;5071920;28;20592;-67
2022/07/05 10:45:23;;;;;;;28.08;12.05;;;33.00;69.90;;;;;;5070391;28;20188;-69
2022/07/05 10:48:11;;;;;;;29.42;11.70;;;33.00;70.00;;;;;;5070792;28;20628;-65
2022/07/05 10:50:48;;;;;;;13.98;7.95;;;33.30;69.50;;;;;;5070634;28;20189;-67
2022/07/05 10:53:14;;;;;;;9.32;7.53;;;33.70;64.70;;;;;;5068680;28;20201;-66
2022/07/05 10:55:57;;;;;;;17.75;8.55;;;33.80;60.80;;;;;;5070415;28;20185;-69
2022/07/05 10:58:39;;;;;;;13.05;6.30;;;33.90;59.60;;;;;;5071070;28;20270;-61
2022/07/05 11:01:20;;;;;;;19.02;8.13;;;33.90;55.80;;;;;;5070794;28;20193;-60
2022/07/05 11:03:51;;;;;;;11.60;7.00;;;34.00;53.70;;;;;;5071199;28;20241;-64
2022/07/05 11:06:21;;;;;;;11.38;6.70;;;34.00;53.90;;;;;;5069150;28;20185;-62
2022/07/05 11:08:59;;;;;;;10.18;7.65;;;33.80;52.80;;;;;;5070571;28;20186;-62
2022/07/05 11:11:33;;;;;;;18.77;9.18;;;34.00;52.90;;;;;;5069152;28;20283;-60
2022/07/05 11:14:01;;;;;;;14.10;6.93;;;34.30;54.60;;;;;;5070651;28;20193;-64
2022/07/05 11:16:28;;;;;;;12.80;8.32;;;34.80;54.30;;;;;;5069099;28;20189;-63
2022/07/05 11:19:04;;;;;;;13.95;8.07;;;35.10;52.80;;;;;;5069191;28;20213;-65
2022/07/05 11:21:30;;;;;;;12.43;7.57;;;35.50;53.10;;;;;;5069992;28;20601;-64
2022/07/05 11:24:23;;;;;;;14.05;7.70;;;35.90;51.30;;;;;;5070964;28;20268;-61
2022/07/05 11:26:52;;;;;;;9.95;7.03;;;36.00;50.20;;;;;;5070978;28;20658;-62
2022/07/05 11:29:50;;;;;;;13.38;6.43;;;36.60;50.90;;;;;;5068955;28;20244;-63
2022/07/05 11:32:20;;;;;;;10.43;6.65;;;37.90;46.90;;;;;;5070300;28;20267;-62
2022/07/05 11:34:52;;;;;;;13.93;7.63;;;39.10;45.70;;;;;;5069914;28;20188;-66
2022/07/05 11:37:34;;;;;;;18.98;7.07;;;40.00;44.40;;;;;;5069900;28;20185;-66
2022/07/05 11:40:06;;;;;;;21.73;8.50;;;41.20;42.30;;;;;;5069808;28;20213;-66
2022/07/05 11:42:37;;;;;;;19.50;9.55;;;41.70;41.50;;;;;;5068605;28;20189;-63
2022/07/05 11:45:04;;;;;;;14.02;7.38;;;42.40;40.40;;;;;;5068678;28;20250;-62
2022/07/05 11:47:30;;;;;;;16.85;7.63;;;43.10;40.00;;;;;;5071164;28;20192;-61
2022/07/05 11:49:57;;;;;;;10.35;7.30;;;43.20;38.50;;;;;;5071920;28;20189;-62
2022/07/05 11:52:31;;;;;;;14.23;8.32;;;43.90;38.30;;;;;;5071443;28;20208;-62
2022/07/05 11:54:58;;;;;;;10.75;7.00;;;44.00;37.10;;;;;;5071028;28;20225;-61
2022/07/05 11:57:24;;;;;;;9.75;6.82;;;44.90;35.30;;;;;;5068650;28;20189;-61
2022/07/05 11:59:50;;;;;;;11.35;6.75;;;44.90;34.60;;;;;;5070437;28;20297;-63
2022/07/05 12:02:17;;;;;;;19.20;9.30;;;45.40;33.40;;;;;;5069657;28;20682;-60
2022/07/05 12:04:50;;;;;;;9.85;5.70;;;46.00;33.70;;;;;;5069150;28;20682;-63
2022/07/05 12:07:33;;;;;;;6.70;2.72;;;46.50;32.20;;;;;;5069910;28;20192;-62
2022/07/05 12:12:47;;;;;;;3.15;1.20;;;47.40;31.40;;;;;;5070364;28;20204;-62
2022/07/05 12:15:15;;;;;;;36.13;2.33;;;47.40;31.80;;;;;;5070070;28;20181;-62
2022/07/05 12:17:43;;;;;;;0.30;0.30;;;46.70;31.50;;;;;;5067601;28;20177;-64
2022/07/05 12:20:12;;;;;;;0.68;0.63;;;46.20;30.90;;;;;;5070005;28;20201;-64
2022/07/05 12:22:43;;;;;;;3.22;1.30;;;46.30;31.80;;;;;;5069876;28;20223;-63
2022/07/05 12:25:13;;;;;;;1.02;1.00;;;46.00;30.70;;;;;;5069634;28;20181;-66
2022/07/05 12:27:41;;;;;;;0.77;0.68;;;45.80;30.60;;;;;;5079699;28;20235;-62
2022/07/05 12:30:09;;;;;;;1.48;0.95;;;44.60;30.90;;;;;;5109681;28;20187;-63
2022/07/05 12:33:03;;;;;;;0.73;0.73;;;42.90;32.40;;;;;;5091661;28;20540;-61
2022/07/05 12:35:46;;;;;;;0.43;0.43;;;42.50;34.30;;;;;;5110343;28;20251;-61
2022/07/05 12:38:18;;;;;;;1.88;0.95;;;43.60;33.30;;;;;;5109644;28;20225;-64
2022/07/05 12:40:46;;;;;;;0.30;0.30;;;43.10;32.60;;;;;;5110248;28;20298;-67
2022/07/05 12:43:14;;;;;;;0.30;0.30;;;41.90;33.80;;;;;;5109780;28;20616;-65